Time;durP1;ratioP1;P1;durP2;ratioP2;P2;SDS_P1;SDS_P2;PMS_P1;PMS_P2;Temp;Humidity;BMP_temperature;BMP_pressure;BME280_temperature;BME280_humidity;BME280_pressure;Samples;Min_cycle;Max_cycle;Signal;HPM_P1;HPM_P2
2022/11/09 00:01:14;;;;;;;9.68;2.90;;;14.90;56.70;;;;;;4993379;28;20402;-73
2022/11/09 00:03:40;;;;;;;5.70;2.50;;;14.90;56.60;;;;;;4993704;28;20409;-71
2022/11/09 00:06:07;;;;;;;5.82;2.80;;;14.90;56.60;;;;;;4992657;28;20818;-72
2022/11/09 00:08:35;;;;;;;8.27;3.13;;;15.00;56.30;;;;;;4992989;28;20486;-72
2022/11/09 00:11:05;;;;;;;4.77;2.90;;;14.90;56.60;;;;;;4992760;28;20402;-70
2022/11/09 00:13:31;;;;;;;4.53;2.90;;;14.80;57.20;;;;;;4993164;28;20393;-70
2022/11/09 00:16:00;;;;;;;8.68;2.60;;;14.80;58.10;;;;;;4993472;28;20494;-70
2022/11/09 00:18:26;;;;;;;5.28;3.20;;;14.70;58.60;;;;;;4993365;28;20456;-70
2022/11/09 00:20:52;;;;;;;5.68;2.20;;;14.70;59.20;;;;;;4992702;28;20398;-71
2022/11/09 00:23:17;;;;;;;4.65;2.30;;;14.60;58.70;;;;;;4996948;28;20421;-73
2022/11/09 00:25:43;;;;;;;4.40;2.60;;;14.60;58.90;;;;;;4998296;28;20586;-72
2022/11/09 00:28:09;;;;;;;5.13;2.63;;;14.60;59.60;;;;;;4998475;28;20379;-72
2022/11/09 00:30:34;;;;;;;6.37;2.70;;;14.50;59.70;;;;;;4997471;28;20506;-71
2022/11/09 00:33:00;;;;;;;3.80;2.30;;;14.50;60.60;;;;;;4997774;28;20398;-74
2022/11/09 00:35:26;;;;;;;3.33;2.10;;;14.40;61.00;;;;;;4998728;28;20386;-73
2022/11/09 00:37:51;;;;;;;3.88;2.78;;;14.30;62.60;;;;;;4999735;28;20485;-72
2022/11/09 00:40:17;;;;;;;6.03;3.30;;;14.20;63.70;;;;;;5003110;28;20403;-71
2022/11/09 00:42:42;;;;;;;4.90;3.00;;;14.20;64.40;;;;;;5009922;28;20407;-72
2022/11/09 00:45:08;;;;;;;5.30;3.00;;;14.20;63.80;;;;;;5010868;28;20386;-73
2022/11/09 00:47:34;;;;;;;4.82;2.75;;;14.20;63.30;;;;;;5000552;28;20405;-73
2022/11/09 00:49:59;;;;;;;7.20;3.10;;;14.20;63.90;;;;;;4998648;28;20395;-73
2022/11/09 00:52:25;;;;;;;6.75;2.28;;;14.10;64.40;;;;;;4997271;28;20390;-72
2022/11/09 00:54:50;;;;;;;3.03;2.60;;;14.10;64.40;;;;;;4997375;28;20387;-72
2022/11/09 00:57:16;;;;;;;4.37;2.50;;;14.10;63.80;;;;;;4980380;28;20413;-73
2022/11/09 00:59:41;;;;;;;6.57;2.70;;;14.10;64.10;;;;;;4997196;28;20740;-72
2022/11/09 01:02:07;;;;;;;6.50;2.90;;;14.20;63.40;;;;;;4996821;28;20382;-71
2022/11/09 01:04:32;;;;;;;6.90;2.80;;;14.20;62.90;;;;;;4996577;28;20383;-74
2022/11/09 01:06:58;;;;;;;5.20;3.00;;;14.30;62.30;;;;;;4996712;28;20888;-72
2022/11/09 01:09:23;;;;;;;7.83;2.50;;;14.30;62.20;;;;;;4996405;28;20395;-73
2022/11/09 01:11:49;;;;;;;5.00;2.40;;;14.30;61.10;;;;;;4995403;28;20743;-71
2022/11/09 01:14:15;;;;;;;4.40;2.20;;;14.40;59.30;;;;;;4995198;28;20393;-72
2022/11/09 01:16:40;;;;;;;3.35;2.50;;;14.40;59.30;;;;;;4994730;28;20398;-73
2022/11/09 01:19:06;;;;;;;4.90;2.37;;;14.50;59.20;;;;;;4995727;28;20810;-71
2022/11/09 01:21:32;;;;;;;3.90;2.83;;;14.50;59.00;;;;;;4996998;28;20410;-72
2022/11/09 01:23:57;;;;;;;5.90;3.10;;;14.40;59.40;;;;;;4996480;28;20410;-70
2022/11/09 01:26:23;;;;;;;5.50;2.40;;;14.40;59.90;;;;;;4996332;28;20491;-72
2022/11/09 01:28:49;;;;;;;3.70;2.30;;;14.30;59.80;;;;;;4997107;28;20386;-73
2022/11/09 01:31:17;;;;;;;4.57;2.47;;;14.40;59.40;;;;;;4995433;28;20414;-73
2022/11/09 01:33:43;;;;;;;5.35;2.30;;;14.40;59.90;;;;;;4995964;28;20457;-73
2022/11/09 01:36:15;;;;;;;3.25;2.58;;;14.30;59.60;;;;;;4996049;28;20871;-73
2022/11/09 01:38:41;;;;;;;3.00;2.13;;;14.30;59.70;;;;;;4996972;28;20401;-72
2022/11/09 01:41:10;;;;;;;5.07;2.50;;;14.30;59.10;;;;;;4995364;28;20423;-75
2022/11/09 01:43:35;;;;;;;6.25;2.58;;;14.30;59.50;;;;;;4997632;28;20480;-73
2022/11/09 01:46:08;;;;;;;2.50;2.20;;;14.20;60.10;;;;;;4996715;28;20785;-73
2022/11/09 01:48:40;;;;;;;3.87;2.40;;;14.20;60.20;;;;;;4995078;28;20425;-74
2022/11/09 01:51:36;;;;;;;7.50;2.60;;;14.10;60.70;;;;;;4994623;28;20390;-72
2022/11/09 01:54:08;;;;;;;3.28;2.20;;;14.20;59.50;;;;;;4995687;28;20390;-73
2022/11/09 01:56:34;;;;;;;3.13;2.20;;;14.20;59.10;;;;;;4995189;28;20383;-74
2022/11/09 01:59:07;;;;;;;6.07;2.30;;;14.10;59.90;;;;;;4996049;28;20396;-73
2022/11/09 02:01:34;;;;;;;5.05;2.35;;;14.10;59.70;;;;;;4994773;28;20401;-72
2022/11/09 02:04:12;;;;;;;4.57;2.80;;;14.00;60.10;;;;;;4995509;28;20410;-73
2022/11/09 02:06:38;;;;;;;4.10;2.33;;;13.90;60.60;;;;;;4996170;28;20399;-72
2022/11/09 02:09:19;;;;;;;5.63;2.50;;;13.90;61.70;;;;;;4994622;28;20409;-72
2022/11/09 02:11:44;;;;;;;2.80;2.17;;;13.80;61.60;;;;;;4997262;28;20473;-72
2022/11/09 02:14:11;;;;;;;5.50;2.70;;;13.80;62.00;;;;;;5002759;28;20402;-73
2022/11/09 02:16:37;;;;;;;5.55;2.08;;;13.80;62.20;;;;;;5003112;28;20449;-73
2022/11/09 02:19:03;;;;;;;3.67;2.30;;;13.80;60.90;;;;;;4979461;28;20926;-73
2022/11/09 02:21:30;;;;;;;5.28;2.40;;;14.00;60.30;;;;;;4999419;28;20410;-72
2022/11/09 02:23:57;;;;;;;5.60;2.87;;;13.90;59.90;;;;;;5002417;28;20496;-73
2022/11/09 02:26:31;;;;;;;3.90;1.88;;;14.00;59.60;;;;;;5004412;28;20747;-72
2022/11/09 02:28:58;;;;;;;4.75;1.90;;;13.90;59.90;;;;;;5002596;28;20399;-72
2022/11/09 02:31:32;;;;;;;4.07;2.33;;;14.00;58.90;;;;;;4985597;28;20477;-73
2022/11/09 02:34:14;;;;;;;6.60;2.28;;;14.00;58.50;;;;;;5003189;28;20402;-74
2022/11/09 02:36:39;;;;;;;5.85;2.20;;;14.00;58.30;;;;;;5002140;28;20495;-74
2022/11/09 02:39:05;;;;;;;4.55;2.20;;;14.10;57.10;;;;;;5004612;28;20406;-73
2022/11/09 02:41:33;;;;;;;5.13;2.30;;;14.10;57.30;;;;;;4968895;28;20399;-73
2022/11/09 02:44:00;;;;;;;4.50;2.50;;;14.10;56.80;;;;;;5005559;28;20499;-72
2022/11/09 02:46:33;;;;;;;8.47;2.50;;;14.20;56.70;;;;;;5004400;28;20387;-72
2022/11/09 02:49:00;;;;;;;4.63;2.50;;;14.10;56.80;;;;;;5003458;28;20682;-74
2022/11/09 02:51:26;;;;;;;3.53;1.70;;;14.10;56.80;;;;;;5002855;28;20469;-71
2022/11/09 02:53:51;;;;;;;4.30;2.10;;;14.20;55.30;;;;;;5004506;28;20417;-71
2022/11/09 02:56:17;;;;;;;6.40;2.73;;;14.30;54.90;;;;;;5004737;28;20394;-72
2022/11/09 02:58:42;;;;;;;7.43;2.43;;;14.30;54.40;;;;;;5004774;28;20389;-73
2022/11/09 03:01:08;;;;;;;3.97;2.23;;;14.30;55.40;;;;;;5003617;28;20417;-73
2022/11/09 03:03:33;;;;;;;7.07;2.10;;;14.30;54.80;;;;;;5004624;28;20775;-74
2022/11/09 03:05:59;;;;;;;5.85;2.40;;;14.20;55.30;;;;;;5005183;28;20382;-73
2022/11/09 03:08:24;;;;;;;3.40;2.00;;;14.20;55.00;;;;;;4986655;28;20764;-74
2022/11/09 03:10:50;;;;;;;7.13;2.03;;;14.30;55.30;;;;;;5002284;28;20418;-73
2022/11/09 03:13:15;;;;;;;4.85;2.30;;;14.40;53.30;;;;;;5002590;28;20437;-73
2022/11/09 03:15:41;;;;;;;7.70;2.70;;;14.40;53.70;;;;;;5004090;28;20394;-72
2022/11/09 03:18:07;;;;;;;5.90;2.60;;;14.40;54.20;;;;;;5003542;28;20457;-71
2022/11/09 03:20:32;;;;;;;4.43;2.20;;;14.50;52.80;;;;;;5004222;28;20394;-72
2022/11/09 03:22:59;;;;;;;4.43;2.30;;;14.50;53.00;;;;;;5003504;28;20406;-74
2022/11/09 03:25:25;;;;;;;8.20;2.25;;;14.50;52.80;;;;;;5004559;28;20393;-72
2022/11/09 03:27:57;;;;;;;7.10;2.40;;;14.40;53.00;;;;;;4985247;28;20409;-74
2022/11/09 03:30:22;;;;;;;7.07;2.40;;;14.40;53.20;;;;;;5002518;28;20383;-72
2022/11/09 03:32:48;;;;;;;6.32;2.00;;;14.50;53.30;;;;;;4984635;28;20803;-73
2022/11/09 03:35:14;;;;;;;16.02;2.95;;;14.40;53.30;;;;;;5002256;28;20497;-74
2022/11/09 03:37:39;;;;;;;10.02;2.60;;;14.50;52.80;;;;;;5001939;28;20798;-76
2022/11/09 03:40:05;;;;;;;9.00;2.53;;;14.40;53.60;;;;;;5001639;28;20394;-73
2022/11/09 03:42:31;;;;;;;3.30;1.90;;;14.40;52.70;;;;;;5001626;28;20390;-73
2022/11/09 03:44:56;;;;;;;8.68;2.60;;;14.50;53.10;;;;;;5003852;28;20397;-72
2022/11/09 03:47:22;;;;;;;7.60;2.80;;;14.60;51.60;;;;;;4990697;28;20437;-72
2022/11/09 03:49:47;;;;;;;6.70;2.30;;;14.60;51.30;;;;;;5009530;28;20449;-72
2022/11/09 03:52:13;;;;;;;5.67;2.20;;;14.60;52.10;;;;;;5008781;28;20474;-72
2022/11/09 03:54:38;;;;;;;6.20;2.60;;;14.50;51.90;;;;;;5004979;28;20493;-73
2022/11/09 03:57:04;;;;;;;4.87;2.40;;;14.50;51.80;;;;;;5003709;28;20437;-73
2022/11/09 03:59:29;;;;;;;7.53;2.60;;;14.50;51.80;;;;;;5003750;28;20386;-72
2022/11/09 04:01:55;;;;;;;6.22;2.17;;;14.60;51.80;;;;;;5005940;28;20394;-73
2022/11/09 04:04:20;;;;;;;8.80;2.60;;;14.50;52.00;;;;;;5007072;28;20692;-74
2022/11/09 04:06:46;;;;;;;5.93;2.70;;;14.50;53.00;;;;;;5004044;28;20397;-73
2022/11/09 04:09:12;;;;;;;8.87;2.50;;;14.50;52.00;;;;;;5004568;28;20385;-73
2022/11/09 04:11:37;;;;;;;7.75;2.50;;;14.60;51.80;;;;;;5006161;28;20397;-72
2022/11/09 04:14:03;;;;;;;6.97;2.20;;;14.60;51.90;;;;;;5005911;28;20397;-73
2022/11/09 04:16:28;;;;;;;6.07;2.20;;;14.60;51.70;;;;;;5006274;28;20398;-74
2022/11/09 04:18:54;;;;;;;6.00;2.10;;;14.70;51.60;;;;;;5005137;28;20406;-73
2022/11/09 04:21:19;;;;;;;11.93;2.50;;;14.70;50.90;;;;;;5005524;28;20433;-71
2022/11/09 04:23:47;;;;;;;8.05;2.30;;;14.70;50.40;;;;;;5005831;28;20478;-73
2022/11/09 04:26:12;;;;;;;5.45;2.33;;;14.70;50.10;;;;;;5004528;28;20453;-73
2022/11/09 04:28:38;;;;;;;6.03;2.30;;;14.70;50.70;;;;;;5004419;28;20784;-73
2022/11/09 04:31:04;;;;;;;9.35;2.45;;;14.70;50.60;;;;;;5003883;28;20378;-72
2022/11/09 04:33:29;;;;;;;6.15;2.40;;;14.60;50.60;;;;;;5004959;28;20386;-73
2022/11/09 04:36:01;;;;;;;10.10;2.50;;;14.70;51.10;;;;;;5003326;28;20871;-72
2022/11/09 04:38:26;;;;;;;7.82;2.47;;;14.80;49.60;;;;;;5003737;28;20386;-73
2022/11/09 04:40:52;;;;;;;6.73;2.57;;;14.70;50.30;;;;;;5004033;28;20405;-72
2022/11/09 04:43:17;;;;;;;7.45;2.30;;;14.80;50.00;;;;;;5003856;28;20425;-73
2022/11/09 04:45:43;;;;;;;5.03;2.10;;;14.80;50.10;;;;;;5007076;28;20383;-71
2022/11/09 04:48:09;;;;;;;10.03;2.70;;;14.70;50.70;;;;;;5008917;28;20422;-71
2022/11/09 04:50:35;;;;;;;6.63;2.85;;;14.70;51.20;;;;;;5005187;28;20382;-73
2022/11/09 04:53:05;;;;;;;9.80;2.58;;;14.70;52.50;;;;;;5003364;28;20458;-73
2022/11/09 04:55:31;;;;;;;9.88;2.80;;;14.70;52.40;;;;;;5003481;28;20394;-74
2022/11/09 04:57:57;;;;;;;11.80;2.60;;;14.60;54.70;;;;;;5003563;28;20444;-75
2022/11/09 05:00:22;;;;;;;10.13;3.00;;;14.60;54.80;;;;;;5003137;28;20398;-74
2022/11/09 05:02:48;;;;;;;10.23;2.88;;;14.70;55.20;;;;;;5003073;28;20410;-72
2022/11/09 05:05:13;;;;;;;9.95;2.60;;;14.60;55.90;;;;;;5005129;28;20406;-72
2022/11/09 05:07:40;;;;;;;6.87;3.10;;;14.60;56.80;;;;;;5007923;28;20382;-70
2022/11/09 05:10:06;;;;;;;8.95;2.88;;;14.60;57.40;;;;;;5006141;28;20385;-72
2022/11/09 05:12:31;;;;;;;6.85;2.60;;;14.60;56.80;;;;;;5002086;28;20383;-72
2022/11/09 05:14:57;;;;;;;11.70;3.00;;;14.50;57.60;;;;;;5000843;28;20390;-72
2022/11/09 05:17:22;;;;;;;11.10;2.67;;;14.50;57.70;;;;;;5002071;28;20872;-73
2022/11/09 05:19:48;;;;;;;8.48;2.50;;;14.50;57.00;;;;;;5002294;28;20387;-73
2022/11/09 05:24:58;;;;;;;8.93;2.60;;;14.50;57.20;;;;;;5010467;28;20421;-72
2022/11/09 05:27:24;;;;;;;5.00;2.30;;;14.40;58.70;;;;;;5008557;28;20387;-70
2022/11/09 05:29:49;;;;;;;8.82;2.88;;;14.50;57.60;;;;;;5003767;28;20397;-72
2022/11/09 05:32:15;;;;;;;9.82;2.47;;;14.40;57.10;;;;;;5000970;28;20454;-73
2022/11/09 05:34:40;;;;;;;7.97;2.80;;;14.50;56.80;;;;;;5001707;28;20394;-73
2022/11/09 05:37:06;;;;;;;8.20;3.10;;;14.50;56.50;;;;;;5017188;28;20402;-71
2022/11/09 05:39:31;;;;;;;13.73;2.85;;;14.50;56.50;;;;;;5003361;28;20405;-74
2022/11/09 05:41:57;;;;;;;14.00;2.83;;;14.50;56.00;;;;;;5004028;28;20531;-73
2022/11/09 05:44:22;;;;;;;13.40;3.60;;;14.60;55.60;;;;;;5002698;28;20497;-73
2022/11/09 05:46:48;;;;;;;11.30;2.80;;;14.50;56.20;;;;;;5002624;28;20422;-73
2022/11/09 05:49:13;;;;;;;6.88;2.70;;;14.60;56.50;;;;;;5003595;28;20390;-72
2022/11/09 05:51:39;;;;;;;8.45;3.17;;;14.50;58.40;;;;;;5002914;28;20472;-73
2022/11/09 05:54:04;;;;;;;11.30;2.90;;;14.50;58.30;;;;;;5002136;28;20401;-71
2022/11/09 05:56:30;;;;;;;11.33;3.00;;;14.50;56.90;;;;;;5000556;28;20393;-73
2022/11/09 05:58:56;;;;;;;10.80;2.47;;;14.50;57.10;;;;;;5002274;28;20394;-72
2022/11/09 06:01:22;;;;;;;10.10;3.10;;;14.40;56.70;;;;;;5003011;28;20417;-70
2022/11/09 06:03:48;;;;;;;13.00;3.50;;;14.30;57.80;;;;;;5003607;28;20954;-73
2022/11/09 06:06:15;;;;;;;14.43;3.70;;;14.30;58.00;;;;;;5002457;28;20401;-72
2022/11/09 06:08:41;;;;;;;10.65;2.53;;;14.30;58.10;;;;;;5002794;28;20422;-72
2022/11/09 06:11:09;;;;;;;13.98;2.95;;;14.30;59.30;;;;;;5003185;28;20386;-73
2022/11/09 06:13:35;;;;;;;11.13;3.28;;;14.20;59.80;;;;;;5004743;28;20390;-71
2022/11/09 06:16:02;;;;;;;11.88;3.15;;;14.20;59.80;;;;;;5003859;28;20406;-73
2022/11/09 06:18:29;;;;;;;9.85;3.30;;;14.10;60.00;;;;;;5003854;28;20430;-73
2022/11/09 06:20:57;;;;;;;12.52;2.80;;;14.20;60.00;;;;;;5003846;28;20398;-72
2022/11/09 06:23:28;;;;;;;8.25;3.17;;;14.20;59.60;;;;;;5003918;28;20402;-73
2022/11/09 06:26:02;;;;;;;9.82;3.00;;;14.30;59.30;;;;;;4985764;28;20451;-72
2022/11/09 06:28:28;;;;;;;10.93;3.10;;;14.30;58.30;;;;;;5003783;28;20473;-72
2022/11/09 06:30:58;;;;;;;8.88;2.60;;;14.40;57.30;;;;;;5003008;28;20390;-70
2022/11/09 06:33:24;;;;;;;10.17;2.20;;;14.40;56.30;;;;;;4985457;28;20987;-72
2022/11/09 06:35:50;;;;;;;5.85;2.50;;;14.40;55.60;;;;;;5002788;28;20442;-73
2022/11/09 06:38:16;;;;;;;6.38;2.55;;;14.30;56.30;;;;;;5003759;28;20409;-72
2022/11/09 06:40:41;;;;;;;11.20;2.63;;;14.30;56.20;;;;;;5003517;28;20468;-72
2022/11/09 06:43:08;;;;;;;11.77;2.47;;;14.40;55.60;;;;;;5005033;28;20406;-71
2022/11/09 06:45:33;;;;;;;6.10;2.30;;;14.40;55.80;;;;;;5005371;28;20421;-72
2022/11/09 06:48:01;;;;;;;6.80;2.30;;;14.30;55.70;;;;;;5006182;28;20974;-72
2022/11/09 06:50:30;;;;;;;9.43;2.70;;;14.40;55.40;;;;;;5006481;28;20386;-75
2022/11/09 06:52:57;;;;;;;8.10;2.50;;;14.30;56.60;;;;;;5005487;28;20398;-73
2022/11/09 06:55:23;;;;;;;9.00;2.40;;;14.30;57.20;;;;;;5005723;28;20474;-74
2022/11/09 06:57:49;;;;;;;9.93;2.70;;;14.40;57.10;;;;;;5005856;28;20454;-72
2022/11/09 07:00:15;;;;;;;9.60;2.30;;;14.40;56.80;;;;;;5005044;28;20863;-72
2022/11/09 07:02:41;;;;;;;9.05;2.90;;;14.40;56.30;;;;;;5010984;28;20470;-73
2022/11/09 07:05:07;;;;;;;7.55;2.20;;;14.40;56.30;;;;;;5012408;28;20398;-73
2022/11/09 07:07:33;;;;;;;10.32;2.55;;;14.40;56.20;;;;;;5011869;28;20382;-71
2022/11/09 07:09:58;;;;;;;6.10;2.00;;;14.30;56.80;;;;;;5009027;28;20398;-72
2022/11/09 07:12:24;;;;;;;8.52;2.30;;;14.30;56.50;;;;;;5004236;28;20387;-71
2022/11/09 07:14:49;;;;;;;6.40;2.00;;;14.30;54.90;;;;;;5004200;28;20409;-73
2022/11/09 07:17:15;;;;;;;4.50;1.90;;;14.40;54.90;;;;;;5004941;28;20403;-74
2022/11/09 07:19:40;;;;;;;7.53;2.35;;;14.30;54.80;;;;;;5005510;28;20763;-74
2022/11/09 07:22:06;;;;;;;9.35;2.30;;;14.20;55.70;;;;;;5004309;28;20414;-72
2022/11/09 07:24:31;;;;;;;11.63;2.40;;;14.20;54.90;;;;;;5004839;28;20420;-73
2022/11/09 07:26:57;;;;;;;7.87;2.20;;;14.10;55.10;;;;;;5005324;28;20378;-74
2022/11/09 07:29:22;;;;;;;7.93;2.60;;;14.00;56.90;;;;;;5005123;28;20478;-73
2022/11/09 07:31:48;;;;;;;8.20;2.40;;;13.90;57.50;;;;;;4993100;28;20390;-72
2022/11/09 07:34:14;;;;;;;13.10;2.30;;;13.70;59.00;;;;;;5007624;28;20401;-74
2022/11/09 07:36:39;;;;;;;11.20;3.40;;;13.60;60.70;;;;;;5005712;28;20382;-73
2022/11/09 07:39:05;;;;;;;7.70;2.90;;;13.50;61.60;;;;;;5005066;28;20398;-70
2022/11/09 07:41:31;;;;;;;8.30;2.80;;;13.40;62.60;;;;;;5005786;28;20393;-72
2022/11/09 07:43:57;;;;;;;12.20;3.10;;;13.40;63.80;;;;;;5008065;28;20811;-73
2022/11/09 07:46:22;;;;;;;7.18;1.80;;;13.30;64.50;;;;;;5008232;28;20871;-74
2022/11/09 07:48:48;;;;;;;11.93;3.10;;;13.40;64.00;;;;;;5013334;28;20495;-71
2022/11/09 07:51:13;;;;;;;7.47;2.20;;;13.50;64.50;;;;;;5015667;28;20382;-72
2022/11/09 07:53:39;;;;;;;15.23;3.38;;;13.60;63.90;;;;;;5014029;28;20390;-72
2022/11/09 07:56:05;;;;;;;13.18;2.90;;;13.50;64.90;;;;;;5005817;28;20395;-72
2022/11/09 07:58:31;;;;;;;11.27;3.20;;;13.40;65.80;;;;;;5003190;28;20425;-74
2022/11/09 08:00:57;;;;;;;8.68;3.03;;;13.50;65.30;;;;;;5003247;28;20401;-73
2022/11/09 08:03:23;;;;;;;8.20;2.80;;;13.50;65.40;;;;;;5003342;28;20457;-72
2022/11/09 08:05:49;;;;;;;7.72;2.60;;;13.50;64.90;;;;;;5003341;28;20383;-71
2022/11/09 08:08:15;;;;;;;6.22;3.05;;;13.60;64.90;;;;;;5002835;28;20398;-73
2022/11/09 08:10:42;;;;;;;12.90;3.25;;;13.60;64.20;;;;;;4986154;28;20393;-73
2022/11/09 08:13:13;;;;;;;7.70;3.45;;;13.70;63.60;;;;;;5002992;28;20386;-71
2022/11/09 08:15:40;;;;;;;6.47;2.97;;;13.80;62.40;;;;;;5003468;28;20390;-73
2022/11/09 08:18:10;;;;;;;9.15;3.40;;;13.80;63.00;;;;;;4988003;28;20391;-72
2022/11/09 08:20:36;;;;;;;12.77;3.20;;;13.80;63.50;;;;;;5005105;28;20955;-73
2022/11/09 08:23:02;;;;;;;8.73;3.20;;;13.80;62.90;;;;;;5000267;28;20498;-72
2022/11/09 08:25:28;;;;;;;10.52;3.00;;;13.90;62.70;;;;;;5002793;28;20925;-73
2022/11/09 08:27:56;;;;;;;10.10;3.07;;;14.20;60.30;;;;;;5004135;28;20410;-71
2022/11/09 08:30:21;;;;;;;10.77;3.08;;;14.30;59.50;;;;;;5003446;28;20413;-74
2022/11/09 08:32:48;;;;;;;9.80;2.70;;;14.30;59.00;;;;;;5002564;28;20395;-73
2022/11/09 08:35:17;;;;;;;10.10;3.40;;;14.30;59.60;;;;;;5002511;28;20402;-72
2022/11/09 08:37:45;;;;;;;15.82;3.45;;;14.20;60.30;;;;;;5002884;28;20421;-71
2022/11/09 08:40:12;;;;;;;5.70;2.47;;;14.30;59.60;;;;;;5001194;28;20402;-74
2022/11/09 08:42:37;;;;;;;8.10;2.55;;;14.40;57.80;;;;;;5012426;28;20425;-71
2022/11/09 08:45:04;;;;;;;8.93;3.37;;;14.40;58.30;;;;;;5012737;28;20406;-70
2022/11/09 08:47:29;;;;;;;10.63;3.10;;;14.40;59.30;;;;;;5010235;28;20386;-72
2022/11/09 08:49:55;;;;;;;8.60;2.97;;;14.40;60.00;;;;;;5009813;28;20514;-73
2022/11/09 08:52:21;;;;;;;7.07;2.73;;;14.50;59.50;;;;;;5004784;28;20429;-72
2022/11/09 08:54:46;;;;;;;10.40;2.63;;;14.60;58.30;;;;;;5005130;28;20474;-72
2022/11/09 08:57:12;;;;;;;13.45;4.90;;;14.80;56.40;;;;;;5005728;28;20395;-73
2022/11/09 08:59:38;;;;;;;7.23;2.50;;;15.10;55.10;;;;;;5008177;28;20759;-72
2022/11/09 09:02:04;;;;;;;8.77;2.50;;;15.60;50.00;;;;;;5005666;28;20425;-72
2022/11/09 09:04:30;;;;;;;10.02;2.33;;;16.00;45.60;;;;;;5007216;28;20402;-72
2022/11/09 09:06:55;;;;;;;7.40;2.70;;;16.30;44.20;;;;;;5005880;28;20437;-73
2022/11/09 09:09:21;;;;;;;7.00;2.60;;;16.40;42.10;;;;;;5005349;28;20382;-71
2022/11/09 09:11:47;;;;;;;7.23;2.60;;;16.40;42.00;;;;;;5012329;28;20386;-71
2022/11/09 09:14:13;;;;;;;12.68;3.15;;;16.20;41.20;;;;;;5012206;28;20932;-72
2022/11/09 09:16:39;;;;;;;6.85;2.10;;;16.00;41.20;;;;;;5005684;28;20469;-72
2022/11/09 09:19:04;;;;;;;9.53;2.57;;;15.90;40.50;;;;;;5002432;28;20425;-73
2022/11/09 09:21:30;;;;;;;8.67;2.30;;;15.80;40.30;;;;;;5004731;28;20417;-70
2022/11/09 09:23:55;;;;;;;7.53;2.00;;;15.70;40.20;;;;;;5012349;28;20423;-72
2022/11/09 09:26:21;;;;;;;4.57;2.25;;;15.80;39.90;;;;;;4990086;28;20450;-71
2022/11/09 09:28:47;;;;;;;5.35;2.10;;;15.80;39.70;;;;;;5008224;28;20410;-73
2022/11/09 09:31:12;;;;;;;4.90;2.20;;;15.80;39.60;;;;;;5004858;28;20413;-72
2022/11/09 09:33:38;;;;;;;6.57;2.10;;;15.80;38.20;;;;;;5005107;28;20509;-72
2022/11/09 09:36:04;;;;;;;6.82;2.00;;;15.80;38.60;;;;;;5012113;28;20445;-72
2022/11/09 09:38:30;;;;;;;5.82;1.70;;;15.80;37.50;;;;;;5006787;28;20394;-72
2022/11/09 09:41:05;;;;;;;8.93;2.10;;;15.80;37.40;;;;;;5005262;28;20394;-71
2022/11/09 09:43:39;;;;;;;6.18;2.30;;;15.80;37.40;;;;;;5005031;28;20749;-73
2022/11/09 09:46:27;;;;;;;6.20;2.30;;;15.70;37.60;;;;;;5004639;28;20763;-73
2022/11/09 09:49:18;;;;;;;8.07;2.50;;;15.70;36.30;;;;;;5004740;28;20452;-73
2022/11/09 09:51:50;;;;;;;5.38;2.30;;;15.80;35.60;;;;;;5004494;28;20672;-73
2022/11/09 09:54:23;;;;;;;8.65;2.80;;;15.80;35.80;;;;;;5005092;28;20477;-72
2022/11/09 09:56:51;;;;;;;5.60;2.17;;;15.90;36.10;;;;;;5005573;28;20385;-73
2022/11/09 09:59:32;;;;;;;9.20;2.70;;;15.80;35.50;;;;;;5004487;28;20478;-72
2022/11/09 10:01:58;;;;;;;9.30;2.53;;;15.80;36.10;;;;;;5004593;28;20406;-72
2022/11/09 10:04:38;;;;;;;6.13;2.30;;;15.70;36.10;;;;;;5005494;28;20417;-73
2022/11/09 10:07:27;;;;;;;5.78;1.95;;;15.70;35.70;;;;;;4987446;28;20413;-71
2022/11/09 10:10:10;;;;;;;12.40;2.60;;;15.70;36.30;;;;;;4987909;28;20394;-71
2022/11/09 10:13:10;;;;;;;10.70;2.20;;;15.70;34.90;;;;;;5004810;28;20390;-72
2022/11/09 10:15:50;;;;;;;7.18;2.40;;;15.80;34.70;;;;;;5007128;28;20482;-73
2022/11/09 10:18:36;;;;;;;6.60;2.00;;;16.00;33.80;;;;;;5007300;28;20394;-74
2022/11/09 10:21:10;;;;;;;6.90;2.20;;;15.90;33.70;;;;;;5003814;28;20426;-73
2022/11/09 10:23:42;;;;;;;8.52;2.67;;;15.80;33.90;;;;;;5014734;28;20418;-72
2022/11/09 10:26:20;;;;;;;11.70;2.40;;;15.80;34.00;;;;;;5011611;28;20387;-71
2022/11/09 10:28:51;;;;;;;10.30;2.30;;;15.80;33.90;;;;;;5011369;28;20398;-72
2022/11/09 10:31:20;;;;;;;5.65;1.90;;;15.60;33.70;;;;;;5004595;28;20402;-72
2022/11/09 10:34:00;;;;;;;7.47;2.20;;;15.50;33.70;;;;;;5003700;28;20491;-73
2022/11/09 10:36:28;;;;;;;7.28;2.00;;;15.40;33.80;;;;;;5003532;28;20398;-72
2022/11/09 10:38:57;;;;;;;9.32;2.10;;;15.40;34.10;;;;;;5003110;28;20472;-72
2022/11/09 10:41:32;;;;;;;11.53;2.43;;;15.40;34.70;;;;;;5003300;28;20469;-71
2022/11/09 10:43:57;;;;;;;7.55;2.20;;;15.40;35.20;;;;;;5003822;28;20411;-72
2022/11/09 10:46:23;;;;;;;12.07;2.90;;;15.40;35.10;;;;;;5003132;28;20393;-70
2022/11/09 10:48:49;;;;;;;7.30;2.00;;;15.50;34.70;;;;;;5005281;28;20378;-75
2022/11/09 10:51:37;;;;;;;9.90;2.15;;;15.50;34.20;;;;;;5004562;28;20398;-72
2022/11/09 10:54:20;;;;;;;8.30;2.60;;;15.50;33.90;;;;;;5005168;28;20405;-72
2022/11/09 10:56:49;;;;;;;8.03;2.30;;;15.50;34.50;;;;;;5005166;28;20454;-72
2022/11/09 10:59:38;;;;;;;10.20;1.92;;;15.60;33.20;;;;;;5003791;28;20421;-72
2022/11/09 11:02:27;;;;;;;6.68;2.17;;;15.70;33.50;;;;;;5003796;28;20383;-72
2022/11/09 11:05:05;;;;;;;8.37;1.97;;;15.60;33.50;;;;;;4988293;28;20409;-72
2022/11/09 11:07:33;;;;;;;10.82;2.38;;;15.60;32.60;;;;;;5007481;28;20387;-73
2022/11/09 11:10:14;;;;;;;8.18;2.30;;;15.50;33.20;;;;;;5008593;28;20375;-71
2022/11/09 11:12:40;;;;;;;7.00;2.45;;;15.50;33.80;;;;;;5007680;28;20370;-72
2022/11/09 11:15:27;;;;;;;10.65;2.20;;;15.60;33.50;;;;;;5007045;28;20383;-72
2022/11/09 11:18:04;;;;;;;8.32;2.55;;;15.60;33.70;;;;;;5004637;28;20747;-72
2022/11/09 11:20:33;;;;;;;9.00;2.83;;;15.70;32.70;;;;;;5003140;28;20379;-72
2022/11/09 11:23:14;;;;;;;11.70;2.30;;;15.60;32.50;;;;;;5000536;28;20417;-71
2022/11/09 11:25:59;;;;;;;9.43;2.22;;;15.60;32.60;;;;;;5003935;28;20385;-72
2022/11/09 11:28:40;;;;;;;15.40;2.50;;;15.70;31.40;;;;;;5003360;28;20387;-73
2022/11/09 11:31:12;;;;;;;9.18;2.35;;;15.70;31.40;;;;;;5004233;28;20382;-72
2022/11/09 11:33:38;;;;;;;10.90;2.03;;;15.70;31.10;;;;;;5004710;28;20471;-73
2022/11/09 11:36:20;;;;;;;9.83;2.60;;;15.70;31.10;;;;;;5006115;28;20387;-73
2022/11/09 11:38:52;;;;;;;8.35;2.40;;;15.70;31.60;;;;;;5006343;28;20386;-72
2022/11/09 11:41:33;;;;;;;12.13;2.63;;;15.70;31.20;;;;;;5009357;28;20423;-72
2022/11/09 11:44:20;;;;;;;21.20;4.07;;;15.70;31.20;;;;;;5008724;28;20402;-71
2022/11/09 11:47:13;;;;;;;7.30;2.20;;;15.60;31.30;;;;;;5011272;28;20490;-73
2022/11/09 11:50:02;;;;;;;8.93;2.30;;;15.80;31.00;;;;;;5009342;28;20474;-72
2022/11/09 11:52:45;;;;;;;10.90;2.30;;;15.80;30.60;;;;;;5006790;28;20397;-72
2022/11/09 11:55:29;;;;;;;10.70;2.10;;;15.80;29.30;;;;;;5005447;28;20387;-72
2022/11/09 11:58:12;;;;;;;10.75;2.15;;;15.80;29.30;;;;;;5003327;28;20799;-73
2022/11/09 12:00:48;;;;;;;9.85;2.17;;;15.90;29.70;;;;;;5004219;28;20421;-72
2022/11/09 12:03:44;;;;;;;23.38;4.22;;;15.90;29.30;;;;;;5002220;28;20915;-72
2022/11/09 12:06:37;;;;;;;10.55;2.45;;;15.90;29.40;;;;;;5006407;28;20394;-70
2022/11/09 12:09:28;;;;;;;11.88;2.80;;;16.10;29.40;;;;;;5009873;28;20382;-70
2022/11/09 12:12:39;;;;;;;17.50;2.20;;;16.20;28.80;;;;;;5009459;28;20427;-73
2022/11/09 12:15:22;;;;;;;7.40;2.17;;;16.30;27.60;;;;;;5005126;28;20375;-73
2022/11/09 12:18:03;;;;;;;7.30;2.40;;;16.50;27.50;;;;;;5004990;28;20486;-73
2022/11/09 12:20:41;;;;;;;12.48;2.20;;;16.70;27.20;;;;;;5004137;28;20482;-72
2022/11/09 12:23:23;;;;;;;11.90;2.60;;;16.80;26.70;;;;;;5021873;23;20428;-73
2022/11/09 12:26:12;;;;;;;10.63;2.50;;;17.00;26.40;;;;;;5013056;28;20408;-75
2022/11/09 12:28:43;;;;;;;12.27;2.10;;;17.00;25.10;;;;;;5015252;28;20384;-76
2022/11/09 12:31:15;;;;;;;11.90;2.50;;;16.90;25.90;;;;;;5019405;28;20377;-74
2022/11/09 12:33:45;;;;;;;13.40;2.85;;;16.90;25.90;;;;;;5019226;28;20389;-76
2022/11/09 12:36:38;;;;;;;12.32;2.33;;;17.00;25.40;;;;;;5019213;28;20416;-76
2022/11/09 12:39:15;;;;;;;11.27;2.15;;;16.90;25.10;;;;;;5018560;28;20422;-78
2022/11/09 12:41:42;;;;;;;7.97;2.17;;;16.80;25.30;;;;;;5013357;28;20447;-75
2022/11/09 12:44:29;;;;;;;10.25;2.20;;;16.60;25.90;;;;;;5012619;28;20420;-75
2022/11/09 12:47:04;;;;;;;13.07;2.58;;;16.50;26.50;;;;;;5014562;28;20385;-74
2022/11/09 12:49:34;;;;;;;29.58;2.85;;;16.50;26.30;;;;;;5017296;28;20476;-76
2022/11/09 12:52:00;;;;;;;10.07;1.83;;;16.50;25.90;;;;;;5016113;28;20385;-76
2022/11/09 12:54:26;;;;;;;17.08;2.85;;;16.30;26.50;;;;;;5015738;28;20442;-76
2022/11/09 12:56:58;;;;;;;12.25;2.70;;;16.30;27.20;;;;;;5018078;28;20452;-74